Time;durP1;ratioP1;P1;durP2;ratioP2;P2;SDS_P1;SDS_P2;PMS_P1;PMS_P2;Temp;Humidity;BMP_temperature;BMP_pressure;BME280_temperature;BME280_humidity;BME280_pressure;Samples;Min_cycle;Max_cycle;Signal;HPM_P1;HPM_P2
2021/12/19 00:10:30;;;;;;;8.73;2.65;;;;;;;11.62;49.44;101121.81;4924811;29;20138;-61
2021/12/19 00:12:58;;;;;;;2.23;1.40;;;;;;;11.73;49.34;101150.66;4930745;29;20135;-61
2021/12/19 00:15:25;;;;;;;1.57;1.10;;;;;;;11.64;49.10;101101.94;4925771;29;20134;-61
2021/12/19 00:17:52;;;;;;;3.30;2.07;;;;;;;11.81;48.80;101140.88;4929662;29;20236;-61
2021/12/19 00:20:19;;;;;;;3.77;2.30;;;;;;;11.77;48.99;101140.59;4930544;29;20480;-61
2021/12/19 00:23:06;;;;;;;8.90;3.07;;;;;;;11.85;48.91;101147.66;4933891;29;20082;-61
2021/12/19 00:25:34;;;;;;;2.90;2.03;;;;;;;11.80;48.78;101136.41;4932193;29;20550;-62
2021/12/19 00:28:00;;;;;;;3.57;2.27;;;;;;;11.73;48.93;101138.63;4930821;29;20134;-62
2021/12/19 00:30:27;;;;;;;2.53;1.63;;;;;;;11.73;48.98;101139.47;4931587;29;20490;-62
2021/12/19 00:32:56;;;;;;;2.73;1.80;;;;;;;11.81;48.91;101141.72;4928619;29;20048;-62
2021/12/19 00:35:23;;;;;;;6.00;3.30;;;;;;;11.83;48.64;101138.66;4929975;29;20892;-58
2021/12/19 00:37:51;;;;;;;5.70;2.60;;;;;;;11.83;48.67;101127.47;4937947;29;20127;-59
2021/12/19 00:40:18;;;;;;;2.20;1.43;;;;;;;11.94;48.41;101140.41;4934704;29;20147;-59
2021/12/19 00:42:51;;;;;;;3.63;2.23;;;;;;;11.89;48.50;101126.38;4928267;29;20099;-60
2021/12/19 00:45:28;;;;;;;5.30;2.87;;;;;;;11.79;48.27;101124.34;4931818;29;20071;-59
2021/12/19 00:47:56;;;;;;;1.27;1.17;;;;;;;11.76;48.57;101110.06;4935544;29;20062;-62
2021/12/19 00:50:26;;;;;;;3.87;2.43;;;;;;;11.73;48.52;101116.25;4931883;29;20174;-61
2021/12/19 00:52:53;;;;;;;5.53;3.97;;;;;;;11.81;48.46;101127.72;4935979;29;20518;-63
2021/12/19 00:55:23;;;;;;;5.23;3.33;;;;;;;11.87;48.20;101128.63;4936228;29;20138;-71
2021/12/19 00:57:50;;;;;;;3.63;2.13;;;;;;;11.70;48.30;101109.22;4937189;29;20083;-71
2021/12/19 01:00:20;;;;;;;3.00;2.30;;;;;;;11.79;48.30;101115.13;4933185;29;20048;-69
2021/12/19 01:02:51;;;;;;;2.13;1.73;;;;;;;11.79;48.43;101120.72;4925167;29;20060;-68
2021/12/19 01:05:19;;;;;;;3.17;2.17;;;;;;;11.76;48.41;101110.06;4924783;29;20048;-68
2021/12/19 01:07:46;;;;;;;1.37;1.27;;;;;;;11.71;48.47;101112.88;4936060;29;20138;-67
2021/12/19 01:10:14;;;;;;;2.90;2.23;;;;;;;11.65;48.56;101108.38;4923060;29;20131;-70
2021/12/19 01:12:41;;;;;;;4.23;2.37;;;;;;;11.58;48.56;101103.03;4932181;29;20058;-71
2021/12/19 01:15:11;;;;;;;2.83;2.13;;;;;;;11.58;48.68;101097.44;4924015;29;20075;-71
2021/12/19 01:17:38;;;;;;;4.60;2.77;;;;;;;11.61;48.37;101100.53;4931737;29;20051;-71
2021/12/19 01:20:10;;;;;;;5.20;1.73;;;;;;;11.67;48.59;101106.16;4935716;29;20087;-68
2021/12/19 01:22:37;;;;;;;4.27;2.13;;;;;;;11.61;48.66;101099.69;4930449;29;20101;-66
2021/12/19 01:25:05;;;;;;;5.57;2.13;;;;;;;11.61;48.73;101103.31;4937040;29;20131;-66
2021/12/19 01:27:31;;;;;;;4.40;2.43;;;;;;;11.71;48.39;101093.28;4934220;29;20079;-73
2021/12/19 01:29:58;;;;;;;3.17;2.17;;;;;;;11.66;48.38;101099.72;4934716;29;20182;-73
2021/12/19 01:32:26;;;;;;;4.73;2.60;;;;;;;11.49;48.89;101080.34;4935811;29;20142;-71
2021/12/19 01:34:53;;;;;;;2.10;1.77;;;;;;;11.29;48.57;101044.75;4931024;29;20130;-72
2021/12/19 01:37:20;;;;;;;5.00;2.63;;;;;;;11.57;48.75;101088.19;4934782;29;20073;-70
2021/12/19 01:39:49;;;;;;;2.27;1.67;;;;;;;11.59;48.65;101085.97;4935132;29;20142;-71
2021/12/19 01:42:19;;;;;;;2.90;1.90;;;;;;;11.67;48.48;101084.59;4936612;29;20085;-71
2021/12/19 01:44:47;;;;;;;6.30;4.20;;;;;;;11.75;48.21;101077.63;4933753;29;20143;-68
2021/12/19 01:47:15;;;;;;;1.23;1.07;;;;;;;11.66;48.52;101088.53;4931137;29;20047;-67
2021/12/19 01:49:42;;;;;;;9.70;3.57;;;;;;;11.75;48.21;101086.84;4930623;29;20138;-62
2021/12/19 01:52:09;;;;;;;5.47;2.83;;;;;;;11.69;48.51;101090.78;4936209;29;20082;-63
2021/12/19 01:54:36;;;;;;;6.37;3.77;;;;;;;11.71;48.51;101084.91;4931286;29;20051;-67
2021/12/19 01:57:03;;;;;;;7.63;3.33;;;;;;;11.59;48.59;101068.38;4936306;29;20556;-65
2021/12/19 01:59:30;;;;;;;5.87;2.43;;;;;;;11.53;48.82;101075.88;4933734;29;20559;-66
2021/12/19 02:01:57;;;;;;;1.63;1.53;;;;;;;11.54;48.82;101079.53;4931851;29;20130;-67
2021/12/19 02:04:30;;;;;;;2.67;2.27;;;;;;;11.39;49.21;101077.50;4928691;29;20141;-64
2021/12/19 02:06:58;;;;;;;2.20;1.43;;;;;;;11.45;49.15;101075.56;4935671;29;20667;-64
2021/12/19 02:09:25;;;;;;;1.63;1.00;;;;;;;11.53;48.78;101072.25;4934280;29;20130;-63
2021/12/19 02:11:52;;;;;;;4.77;3.17;;;;;;;11.55;48.81;101072.81;4936488;29;20143;-63
2021/12/19 02:14:20;;;;;;;4.80;3.07;;;;;;;11.55;48.84;101081.19;4927156;29;20087;-64
2021/12/19 02:16:47;;;;;;;8.07;2.83;;;;;;;11.49;49.09;101083.16;4929174;29;20090;-64
2021/12/19 02:19:14;;;;;;;3.93;1.60;;;;;;;11.51;48.95;101069.72;4925810;29;20079;-63
2021/12/19 02:21:41;;;;;;;9.20;4.47;;;;;;;11.67;48.98;101078.16;4933483;29;20139;-67
2021/12/19 02:24:10;;;;;;;8.70;4.50;;;;;;;11.63;48.66;101081.50;4933289;29;20125;-65
2021/12/19 02:26:39;;;;;;;5.07;2.50;;;;;;;11.53;49.32;101072.25;4929595;29;20059;-65
2021/12/19 02:29:06;;;;;;;3.80;2.10;;;;;;;11.46;49.26;101066.06;4931705;29;20484;-65
2021/12/19 02:31:33;;;;;;;7.23;3.57;;;;;;;11.52;49.22;101063.03;4930874;29;20171;-66
2021/12/19 02:34:08;;;;;;;24.67;3.20;;;;;;;11.44;49.17;101057.09;4932860;29;20563;-64
2021/12/19 02:50:10;;;;;;;6.47;3.23;;;;;;;11.63;49.02;101066.69;4929571;29;20138;-63
2021/12/19 02:52:37;;;;;;;2.87;1.77;;;;;;;11.61;48.98;101058.56;4935619;29;20456;-63
2021/12/19 02:55:06;;;;;;;3.20;2.27;;;;;;;11.59;49.01;101065.56;4934590;29;20048;-63
2021/12/19 02:57:33;;;;;;;4.30;2.77;;;;;;;11.57;49.02;101062.19;4939093;29;20134;-64
2021/12/19 03:00:00;;;;;;;4.70;2.90;;;;;;;11.49;49.10;101055.19;4931139;29;20075;-63
2021/12/19 03:02:28;;;;;;;5.57;3.00;;;;;;;11.46;49.18;101050.13;4927891;29;20608;-67
2021/12/19 03:04:58;;;;;;;4.53;2.50;;;;;;;11.40;49.71;101070.81;4931838;29;20139;-70
2021/12/19 03:07:27;;;;;;;1.47;1.37;;;;;;;11.31;49.99;101064.03;4926101;29;20179;-66
2021/12/19 03:17:58;;;;;;;6.70;1.50;;;;;;;11.30;49.95;101059.56;4923012;29;20447;-63
2021/12/19 03:20:28;;;;;;;2.73;1.90;;;;;;;11.37;49.78;101062.94;4932718;29;20139;-62
2021/12/19 03:22:56;;;;;;;8.27;2.63;;;;;;;11.48;49.35;101059.06;4933951;29;20126;-63
2021/12/19 03:25:22;;;;;;;1.40;1.20;;;;;;;11.46;49.30;101049.31;4933750;29;20071;-63
2021/12/19 03:27:50;;;;;;;5.20;3.03;;;;;;;11.20;49.22;101017.59;4928494;29;20465;-60
2021/12/19 03:30:18;;;;;;;7.17;2.90;;;;;;;11.36;49.38;101055.69;4933212;29;20535;-60
2021/12/19 03:32:45;;;;;;;2.80;2.17;;;;;;;11.26;49.52;101038.88;4928291;29;20048;-61
2021/12/19 03:35:13;;;;;;;10.93;4.83;;;;;;;11.24;49.46;101046.69;4933353;29;20055;-60
2021/12/19 03:37:41;;;;;;;8.17;4.33;;;;;;;11.28;49.58;101054.25;4933386;29;20480;-61
2021/12/19 03:40:12;;;;;;;4.87;3.27;;;;;;;11.22;49.84;101049.75;4929474;29;20103;-59
2021/12/19 03:42:43;;;;;;;6.77;2.90;;;;;;;11.24;49.71;101052.28;4930936;29;20140;-60
2021/12/19 03:45:13;;;;;;;7.57;4.37;;;;;;;11.21;49.75;101050.00;4933096;29;20121;-60
2021/12/19 03:47:40;;;;;;;3.90;1.85;;;;;;;11.09;49.97;101041.88;4929385;29;20079;-61
2021/12/19 03:50:10;;;;;;;6.23;3.13;;;;;;;11.17;49.86;101038.53;4930618;29;20138;-60
2021/12/19 03:52:37;;;;;;;5.90;3.47;;;;;;;11.18;49.96;101048.63;4932346;29;20142;-60
2021/12/19 03:55:05;;;;;;;5.43;2.80;;;;;;;11.11;50.19;101032.09;4933708;29;20071;-60
2021/12/19 03:57:32;;;;;;;3.20;2.53;;;;;;;11.14;50.18;101036.28;4934591;29;20134;-60
2021/12/19 03:59:59;;;;;;;9.07;4.23;;;;;;;11.15;50.03;101010.88;4930840;29;20131;-60
2021/12/19 04:02:29;;;;;;;1.53;1.13;;;;;;;11.27;49.95;101041.38;4929288;29;20162;-63
2021/12/19 04:04:57;;;;;;;8.50;4.68;;;;;;;11.29;49.84;101027.16;4932958;29;20087;-60
2021/12/19 04:07:26;;;;;;;6.13;2.93;;;;;;;11.30;49.88;101028.81;4931118;29;20559;-60
2021/12/19 04:09:53;;;;;;;8.03;3.47;;;;;;;11.28;50.09;101031.03;4927747;29;20600;-58
2021/12/19 04:12:26;;;;;;;7.03;3.23;;;;;;;11.25;49.85;101031.59;4932249;29;20508;-57
2021/12/19 04:14:54;;;;;;;2.43;1.73;;;;;;;11.14;50.16;101022.31;4932718;29;23337;-57
2021/12/19 04:17:21;;;;;;;8.33;4.13;;;;;;;11.09;50.17;101017.56;4928669;29;20134;-58
2021/12/19 04:19:49;;;;;;;6.47;3.27;;;;;;;10.83;50.44;100997.00;4933129;28;20055;-57
2021/12/19 04:22:16;;;;;;;2.20;1.57;;;;;;;10.87;50.87;101008.47;4933699;29;20154;-58
2021/12/19 04:24:43;;;;;;;5.53;2.63;;;;;;;10.87;51.16;101030.84;4937438;29;20122;-58
2021/12/19 04:27:09;;;;;;;3.50;2.53;;;;;;;10.87;51.01;101014.06;4930457;29;20244;-57
2021/12/19 04:29:39;;;;;;;6.10;2.80;;;;;;;10.85;50.93;101019.94;4929419;29;20075;-57
2021/12/19 04:32:11;;;;;;;2.67;1.83;;;;;;;10.76;51.44;100998.38;4929664;29;20060;-57
2021/12/19 04:34:38;;;;;;;3.60;1.70;;;;;;;10.73;51.41;101010.09;4931211;29;20130;-56
2021/12/19 04:37:29;;;;;;;2.90;2.23;;;;;;;10.78;51.47;100998.97;4932651;29;20134;-57
2021/12/19 04:40:10;;;;;;;5.33;2.63;;;;;;;10.80;51.28;101003.16;4931484;29;20135;-57
2021/12/19 04:51:16;;;;;;;10.47;3.30;;;;;;;11.02;50.63;101003.00;4927049;29;20135;-62
2021/12/19 04:53:58;;;;;;;5.73;3.13;;;;;;;11.07;50.61;100991.81;4921420;29;20558;-61
2021/12/19 05:15:33;;;;;;;2.70;1.57;;;;;;;11.18;50.55;100966.69;4929703;29;20171;-59
2021/12/19 05:18:06;;;;;;;1.90;1.80;;;;;;;11.17;50.33;100951.03;4928766;29;20134;-61
2021/12/19 05:20:35;;;;;;;2.93;2.20;;;;;;;11.27;50.23;100967.84;4924976;29;20067;-63
2021/12/19 05:23:11;;;;;;;4.60;2.27;;;;;;;11.27;50.36;100968.69;4930853;29;20076;-62
2021/12/19 05:25:38;;;;;;;1.97;1.73;;;;;;;11.27;50.24;100963.09;4931456;29;20122;-63
2021/12/19 05:28:05;;;;;;;2.87;2.30;;;;;;;11.16;50.58;100964.19;4931524;29;20051;-62
2021/12/19 05:30:31;;;;;;;4.87;2.30;;;;;;;11.16;50.45;100964.19;4929687;29;20418;-65
2021/12/19 05:33:01;;;;;;;5.83;2.73;;;;;;;11.12;50.48;100965.84;4928601;29;20103;-71
2021/12/19 05:44:08;;;;;;;1.87;1.40;;;;;;;11.17;50.22;100971.44;4927767;29;20079;-71
2021/12/19 05:46:38;;;;;;;7.37;4.10;;;;;;;11.28;49.91;100964.81;4928228;29;20146;-65
2021/12/19 05:49:06;;;;;;;6.40;3.87;;;;;;;11.12;49.94;100944.34;4928187;29;20111;-62
2021/12/19 05:51:35;;;;;;;6.93;3.57;;;;;;;11.21;49.93;100968.94;4927492;29;20130;-62
2021/12/19 05:54:02;;;;;;;10.27;4.50;;;;;;;11.16;50.09;100975.38;4934062;29;20448;-66
2021/12/19 05:56:29;;;;;;;3.87;2.40;;;;;;;11.10;50.36;100970.88;4933868;29;20079;-70
2021/12/19 05:58:56;;;;;;;5.43;3.87;;;;;;;11.13;50.37;100967.53;4932701;29;20480;-62
2021/12/19 06:01:23;;;;;;;13.93;4.17;;;;;;;11.10;50.19;100966.13;4929847;29;20556;-63
2021/12/19 06:03:50;;;;;;;7.23;3.53;;;;;;;11.12;50.20;100952.72;4929734;29;20493;-62
2021/12/19 06:06:16;;;;;;;10.63;3.70;;;;;;;11.02;49.96;100938.72;4930913;29;20398;-64
2021/12/19 06:08:43;;;;;;;3.13;2.30;;;;;;;11.02;50.54;100963.88;4931518;29;20134;-61
2021/12/19 06:11:10;;;;;;;6.60;3.33;;;;;;;11.02;50.60;100961.06;4926248;29;20064;-63
2021/12/19 06:13:38;;;;;;;8.20;4.03;;;;;;;10.89;50.89;100954.03;4925149;29;20055;-60
2021/12/19 06:16:07;;;;;;;7.83;3.50;;;;;;;10.88;51.03;100968.28;4925501;29;20135;-67
2021/12/19 06:18:34;;;;;;;8.70;3.57;;;;;;;10.76;51.20;100951.72;4931939;29;20131;-62
2021/12/19 06:21:03;;;;;;;5.43;2.23;;;;;;;10.77;51.61;100958.16;4924510;29;20062;-62
2021/12/19 06:23:30;;;;;;;9.83;3.20;;;;;;;10.76;51.48;100967.66;4927817;29;20054;-64
2021/12/19 06:25:56;;;;;;;9.57;4.40;;;;;;;10.78;51.57;100957.06;4929304;29;20051;-67
2021/12/19 06:28:23;;;;;;;10.03;3.07;;;;;;;10.81;51.60;100962.09;4932797;29;20044;-65
2021/12/19 06:30:51;;;;;;;3.17;1.40;;;;;;;10.79;51.65;100951.19;4928987;29;20131;-63
2021/12/19 06:33:19;;;;;;;12.47;2.97;;;;;;;10.63;51.65;100944.69;4926345;29;20139;-64
2021/12/19 06:35:46;;;;;;;5.23;2.90;;;;;;;10.82;51.60;100963.78;4928567;29;20071;-64
2021/12/19 06:38:15;;;;;;;9.17;4.23;;;;;;;10.76;51.71;100962.91;4929485;29;20094;-65
2021/12/19 06:40:42;;;;;;;3.33;1.70;;;;;;;10.77;51.81;100959.00;4927675;29;20079;-62
2021/12/19 06:43:09;;;;;;;3.50;1.97;;;;;;;10.76;51.93;100964.84;4928788;29;20060;-76
2021/12/19 06:45:37;;;;;;;2.63;1.83;;;;;;;10.67;52.13;100970.97;4922930;29;20077;-61
2021/12/19 06:48:04;;;;;;;2.57;1.47;;;;;;;10.61;52.26;100971.22;4927194;29;20077;-58
2021/12/19 06:50:31;;;;;;;3.47;2.50;;;;;;;10.49;52.74;100976.16;4924062;29;20044;-61
2021/12/19 06:52:58;;;;;;;3.47;2.40;;;;;;;10.43;52.73;100969.72;4919694;29;20051;-62
2021/12/19 06:55:26;;;;;;;4.43;2.83;;;;;;;10.36;52.98;100958.78;4927014;29;20052;-62
2021/12/19 06:57:52;;;;;;;7.77;3.20;;;;;;;10.51;52.44;100974.78;4924922;29;20065;-64
2021/12/19 07:00:23;;;;;;;4.00;2.10;;;;;;;10.33;53.06;100955.69;4931096;29;20052;-72
2021/12/19 07:02:52;;;;;;;;;;;;;;;10.25;53.51;100967.31;4925173;29;20058;-74
2021/12/19 07:05:20;;;;;;;4.10;1.80;;;;;;;10.22;53.59;100963.09;4919327;29;21875;-62
2021/12/19 07:07:47;;;;;;;2.03;1.40;;;;;;;10.33;53.39;100969.66;4926085;29;20227;-67
2021/12/19 07:10:16;;;;;;;3.03;1.90;;;;;;;10.31;53.29;100961.53;4929546;29;20403;-62
2021/12/19 07:12:43;;;;;;;3.33;2.57;;;;;;;10.28;53.64;100967.63;4920295;29;20065;-69
2021/12/19 07:15:11;;;;;;;3.70;2.30;;;;;;;10.25;53.50;100956.16;4923900;29;20138;-63
2021/12/19 07:17:37;;;;;;;2.83;2.37;;;;;;;10.24;53.84;100968.44;4919356;29;20056;-58
2021/12/19 07:20:06;;;;;;;1.63;1.50;;;;;;;10.16;53.92;100967.81;4926685;29;20138;-59
2021/12/19 07:22:33;;;;;;;4.97;2.87;;;;;;;10.05;54.21;100957.69;4923786;29;20052;-68
2021/12/19 07:25:02;;;;;;;4.80;2.87;;;;;;;10.05;54.01;100954.91;4925581;29;20142;-60
2021/12/19 07:27:29;;;;;;;4.40;2.50;;;;;;;10.01;54.24;100972.44;4931855;29;20061;-59
2021/12/19 07:29:57;;;;;;;3.50;1.93;;;;;;;10.10;54.08;100973.63;4932867;29;20138;-59
2021/12/19 07:32:24;;;;;;;2.17;1.63;;;;;;;9.99;54.40;100964.34;4931690;29;20150;-60
2021/12/19 07:35:12;;;;;;;4.77;3.00;;;;;;;10.03;54.45;100978.59;4931343;29;20051;-59
2021/12/19 07:37:40;;;;;;;7.60;3.47;;;;;;;10.07;54.31;100988.94;4933683;29;20081;-59
2021/12/19 07:40:16;;;;;;;9.93;3.43;;;;;;;10.03;54.49;100990.59;4932423;29;20495;-64
2021/12/19 07:42:44;;;;;;;6.90;3.33;;;;;;;10.04;54.55;100991.44;4932410;29;20079;-60
2021/12/19 07:45:13;;;;;;;3.13;2.43;;;;;;;10.02;54.38;100974.97;4938005;28;20043;-60
2021/12/19 07:47:41;;;;;;;3.83;2.40;;;;;;;10.02;54.44;100969.38;4927083;29;20127;-69
2021/12/19 07:50:11;;;;;;;5.30;2.73;;;;;;;10.05;54.38;100985.59;4930982;29;20066;-60
2021/12/19 07:52:38;;;;;;;6.93;3.60;;;;;;;10.04;54.48;100975.53;4931741;29;20167;-57
2021/12/19 07:55:06;;;;;;;3.70;2.43;;;;;;;10.02;54.43;100966.59;4922440;29;20475;-55
2021/12/19 07:57:36;;;;;;;4.10;2.37;;;;;;;9.96;54.74;100978.81;4926323;29;20052;-59
2021/12/19 08:00:05;;;;;;;3.60;3.20;;;;;;;9.95;54.64;100966.81;4927684;29;20047;-58
2021/12/19 08:02:32;;;;;;;2.77;2.17;;;;;;;10.02;54.55;100977.75;4929173;29;20079;-57
2021/12/19 08:04:59;;;;;;;6.83;3.37;;;;;;;10.00;54.68;100982.75;4926149;29;20052;-57
2021/12/19 08:07:26;;;;;;;4.00;1.83;;;;;;;10.02;54.85;100972.19;4926186;29;20059;-57
2021/12/19 08:12:36;;;;;;;3.60;2.47;;;;;;;10.03;54.90;100962.69;4928584;29;20142;-56
2021/12/19 08:15:05;;;;;;;5.97;3.10;;;;;;;10.13;54.51;100965.56;4930093;29;20094;-57
2021/12/19 08:17:32;;;;;;;5.40;3.27;;;;;;;10.17;54.48;100955.53;4925090;29;20051;-55
2021/12/19 08:20:00;;;;;;;3.00;2.50;;;;;;;10.35;54.33;100968.25;4927705;29;20130;-56
2021/12/19 08:22:29;;;;;;;2.97;1.67;;;;;;;10.54;54.00;100967.81;4928977;29;20682;-59
2021/12/19 08:24:57;;;;;;;2.97;1.47;;;;;;;10.62;53.77;100962.56;4930506;29;20561;-59
2021/12/19 08:27:26;;;;;;;4.90;2.53;;;;;;;10.80;53.27;100974.38;4931291;29;20067;-59
2021/12/19 08:29:54;;;;;;;2.60;1.53;;;;;;;10.90;52.87;100963.25;4930181;29;20548;-59
2021/12/19 08:32:24;;;;;;;2.30;2.10;;;;;;;10.94;52.71;100944.84;4928670;29;20044;-59
2021/12/19 08:34:52;;;;;;;4.80;2.03;;;;;;;11.06;52.47;100958.56;4934119;29;20134;-59
2021/12/19 08:37:19;;;;;;;2.73;1.83;;;;;;;11.21;52.38;100964.19;4922129;29;20135;-59
2021/12/19 08:39:46;;;;;;;8.77;2.27;;;;;;;11.23;52.06;100966.72;4919645;29;20126;-59
2021/12/19 08:42:14;;;;;;;2.67;1.90;;;;;;;11.31;51.95;100968.97;4924931;29;20136;-59
2021/12/19 08:44:41;;;;;;;3.20;2.63;;;;;;;11.47;51.70;100965.09;4926252;29;20135;-60
2021/12/19 08:47:09;;;;;;;4.67;2.27;;;;;;;11.54;51.39;100974.06;4929296;29;20146;-59
2021/12/19 08:49:36;;;;;;;4.67;2.40;;;;;;;11.61;51.32;100968.22;4925518;29;20493;-61
2021/12/19 08:52:04;;;;;;;8.07;3.63;;;;;;;11.68;51.04;100971.56;4920881;29;20078;-61
2021/12/19 08:54:31;;;;;;;4.30;2.47;;;;;;;11.52;50.81;100931.56;4924029;29;20504;-61
2021/12/19 08:56:58;;;;;;;7.77;2.23;;;;;;;11.82;50.58;100967.09;4916750;29;20146;-60
2021/12/19 08:59:27;;;;;;;3.23;2.33;;;;;;;11.97;50.20;100955.13;4922205;29;20583;-59
2021/12/19 09:01:54;;;;;;;4.93;3.10;;;;;;;11.74;50.39;100956.47;4920974;29;20496;-62
2021/12/19 09:04:21;;;;;;;5.90;3.37;;;;;;;11.76;50.51;100951.44;4922343;29;20052;-62
2021/12/19 09:06:48;;;;;;;2.97;2.07;;;;;;;11.67;50.76;100955.91;4930842;29;20448;-62
2021/12/19 09:09:15;;;;;;;4.23;3.23;;;;;;;11.66;50.99;100958.97;4931781;29;20548;-61
2021/12/19 09:11:42;;;;;;;7.10;3.17;;;;;;;11.65;50.71;100946.09;4923038;29;20043;-59
2021/12/19 09:14:09;;;;;;;5.90;3.23;;;;;;;11.60;50.82;100950.59;4928781;29;20147;-59
2021/12/19 09:16:36;;;;;;;9.13;4.97;;;;;;;11.57;50.99;100969.88;4926966;29;20263;-59
2021/12/19 09:19:12;;;;;;;8.27;3.70;;;;;;;11.67;50.88;100953.13;4929794;29;20134;-60
2021/12/19 09:21:39;;;;;;;4.83;2.60;;;;;;;11.80;50.74;100937.75;4924606;29;20048;-59
2021/12/19 09:24:08;;;;;;;9.57;4.57;;;;;;;11.91;50.55;100936.66;4927180;29;20445;-60
2021/12/19 09:26:35;;;;;;;5.33;4.03;;;;;;;11.96;50.30;100908.63;4928592;29;20059;-60
2021/12/19 09:29:02;;;;;;;9.23;5.47;;;;;;;12.36;49.71;100939.69;4926701;29;20078;-59
2021/12/19 09:31:29;;;;;;;5.47;3.50;;;;;;;12.31;49.51;100954.53;4932016;29;20079;-60
2021/12/19 09:33:56;;;;;;;8.17;3.37;;;;;;;12.18;49.16;100938.31;4930228;29;20147;-60
2021/12/19 09:36:24;;;;;;;5.93;3.40;;;;;;;12.20;49.60;100936.88;4924520;29;20072;-59
2021/12/19 09:38:52;;;;;;;4.33;1.83;;;;;;;12.24;49.52;100943.63;4924280;29;20055;-59
2021/12/19 09:41:28;;;;;;;4.20;2.40;;;;;;;12.39;49.51;100934.34;4922326;29;20158;-60
2021/12/19 09:44:04;;;;;;;5.87;3.63;;;;;;;12.41;49.16;100892.91;4924129;29;20084;-60
2021/12/19 09:46:37;;;;;;;6.17;2.90;;;;;;;12.92;48.38;100937.56;4923755;29;20063;-60
2021/12/19 09:49:06;;;;;;;7.03;3.80;;;;;;;13.11;48.08;100884.44;4933220;29;20142;-60
2021/12/19 09:51:33;;;;;;;3.50;2.70;;;;;;;13.65;47.20;100919.19;4932117;29;20519;-60
2021/12/19 09:54:01;;;;;;;5.73;3.63;;;;;;;13.62;46.85;100912.19;4932477;29;20130;-55
2021/12/19 09:56:33;;;;;;;4.10;3.43;;;;;;;13.47;46.98;100921.56;4925353;29;20055;-59
2021/12/19 09:59:06;;;;;;;7.53;3.70;;;;;;;13.44;46.93;100922.16;4921489;29;20051;-59
2021/12/19 10:01:33;;;;;;;2.13;1.93;;;;;;;13.33;47.04;100925.28;4923439;29;20044;-59
2021/12/19 10:03:59;;;;;;;6.40;3.00;;;;;;;13.57;46.99;100931.03;4918087;29;20115;-60
2021/12/19 10:06:30;;;;;;;6.10;3.60;;;;;;;13.50;46.81;100925.72;4919575;29;20416;-62
2021/12/19 10:09:19;;;;;;;2.38;1.98;;;;;;;13.47;46.92;100935.59;4918889;29;20098;-61
2021/12/19 10:14:32;;;;;;;6.40;4.17;;;;;;;14.52;46.49;100929.63;4925677;29;20146;-62
2021/12/19 10:17:15;;;;;;;6.43;3.23;;;;;;;14.49;45.03;100936.66;4929422;29;20052;-61
2021/12/19 10:19:57;;;;;;;3.73;2.80;;;;;;;14.67;44.83;100927.50;4929348;29;20087;-61
2021/12/19 10:22:38;;;;;;;4.23;2.93;;;;;;;14.39;44.47;100936.75;4929296;29;20138;-62
2021/12/19 10:25:07;;;;;;;5.60;2.20;;;;;;;14.21;44.69;100938.34;4929819;29;20045;-61
2021/12/19 10:27:47;;;;;;;7.18;3.63;;;;;;;14.08;45.05;100931.44;4924319;29;20055;-62
2021/12/19 10:30:22;;;;;;;5.70;2.55;;;;;;;14.18;45.26;100934.16;4918194;29;20055;-61
2021/12/19 10:32:51;;;;;;;11.83;3.87;;;;;;;13.97;45.25;100924.25;4920845;29;20052;-61
2021/12/19 10:35:23;;;;;;;4.17;3.00;;;;;;;13.92;45.41;100939.19;4921008;29;20066;-62
2021/12/19 10:37:50;;;;;;;10.93;1.47;;;;;;;13.98;45.66;100928.72;4916946;29;20050;-63
2021/12/19 10:40:17;;;;;;;2.50;1.60;;;;;;;14.02;45.64;100926.16;4917972;29;20425;-62
2021/12/19 10:43:01;;;;;;;7.10;3.50;;;;;;;13.90;45.61;100924.59;4921253;29;20151;-62
2021/12/19 10:45:43;;;;;;;6.83;3.80;;;;;;;13.88;45.69;100911.97;4923186;29;20083;-62
2021/12/19 10:48:18;;;;;;;1.97;1.77;;;;;;;14.02;45.77;100909.31;4921098;29;20047;-62
2021/12/19 10:50:51;;;;;;;11.13;5.07;;;;;;;14.40;45.27;100913.16;4923820;29;20441;-62
2021/12/19 10:53:22;;;;;;;6.63;3.83;;;;;;;15.10;44.37;100916.25;4930195;29;20052;-62
2021/12/19 10:55:50;;;;;;;4.53;2.93;;;;;;;15.34;43.00;100918.19;4929369;29;20046;-62
2021/12/19 10:58:50;;;;;;;11.63;4.17;;;;;;;15.51;42.75;100901.59;4919696;29;20610;-62
2021/12/19 11:01:20;;;;;;;12.68;3.85;;;;;;;15.94;42.14;100915.56;4914989;29;20424;-62
2021/12/19 11:03:51;;;;;;;3.42;2.78;;;;;;;16.15;41.24;100892.69;4919339;29;20061;-62
2021/12/19 11:06:25;;;;;;;3.53;2.67;;;;;;;16.60;41.06;100905.03;4928657;29;20051;-62
2021/12/19 11:08:54;;;;;;;8.82;4.95;;;;;;;16.56;40.78;100909.66;4933894;29;20055;-62
2021/12/19 11:11:39;;;;;;;;;;;;;;;16.18;40.72;100898.53;4929893;29;20123;-61
2021/12/19 11:14:13;;;;;;;2.30;1.88;;;;;;;15.99;41.31;100904.22;4915470;29;19934;-61
2021/12/19 11:16:41;;;;;;;3.47;2.75;;;;;;;15.99;41.48;100904.22;4920163;29;20071;-60
2021/12/19 11:19:09;;;;;;;4.00;2.65;;;;;;;15.82;41.62;100901.97;4914832;29;20056;-62
2021/12/19 11:21:37;;;;;;;5.57;3.42;;;;;;;15.74;41.55;100911.13;4918863;29;20055;-60
2021/12/19 11:24:07;;;;;;;5.35;2.97;;;;;;;15.93;41.51;100897.00;4922788;29;20138;-62
2021/12/19 11:26:34;;;;;;;;;;;;;;;16.30;41.01;100890.41;4919844;29;20096;-64
2021/12/19 11:29:02;;;;;;;4.72;3.10;;;;;;;16.55;40.37;100893.88;4919983;29;20069;-63
2021/12/19 11:31:31;;;;;;;5.40;3.33;;;;;;;16.96;39.65;100895.88;4923744;29;20075;-63
2021/12/19 11:34:13;;;;;;;7.03;4.93;;;;;;;17.20;39.55;100873.91;4919878;29;20542;-64
2021/12/19 11:36:45;;;;;;;6.60;4.43;;;;;;;17.37;39.06;100849.81;4932279;29;20168;-64
2021/12/19 11:39:14;;;;;;;6.15;2.78;;;;;;;17.90;37.92;100851.88;4932394;29;20083;-64
2021/12/19 11:42:14;;;;;;;7.03;4.38;;;;;;;18.06;37.59;100841.00;4921307;29;20139;-64
2021/12/19 11:47:37;;;;;;;5.72;3.95;;;;;;;18.13;37.36;100845.03;4921902;29;20075;-63
2021/12/19 11:50:22;;;;;;;5.85;2.88;;;;;;;18.25;37.09;100847.25;4921648;29;20079;-63
2021/12/19 11:52:58;;;;;;;7.43;4.10;;;;;;;18.50;37.01;100840.06;4927934;29;20047;-64
2021/12/19 11:55:32;;;;;;;2.88;2.67;;;;;;;18.88;36.65;100840.34;4927507;29;20056;-64
2021/12/19 11:58:08;;;;;;;3.42;2.90;;;;;;;18.84;35.95;100849.84;4925594;29;20043;-64
2021/12/19 12:00:36;;;;;;;11.20;5.78;;;;;;;19.18;35.71;100824.41;4929827;29;20120;-64
2021/12/19 12:03:12;;;;;;;3.97;2.97;;;;;;;19.18;34.81;100830.06;4922467;29;20054;-64
2021/12/19 12:05:50;;;;;;;4.28;3.20;;;;;;;19.04;34.99;100822.88;4919050;29;20492;-64
2021/12/19 12:08:20;;;;;;;6.25;4.07;;;;;;;18.93;35.10;100822.38;4926584;29;20135;-64
2021/12/19 12:10:54;;;;;;;3.22;2.63;;;;;;;18.90;34.84;100798.38;4927274;29;20134;-63
2021/12/19 12:13:25;;;;;;;7.50;3.42;;;;;;;18.95;35.35;100811.56;4917310;29;20055;-63
2021/12/19 12:16:30;;;;;;;10.82;4.18;;;;;;;19.26;35.11;100811.41;4922506;29;20178;-63
2021/12/19 12:18:59;;;;;;;5.22;3.35;;;;;;;18.94;35.29;100790.09;4919344;29;20055;-64
2021/12/19 12:21:48;;;;;;;3.60;2.80;;;;;;;18.73;35.24;100789.88;4925652;29;20095;-65
2021/12/19 12:24:18;;;;;;;5.03;3.78;;;;;;;19.05;35.33;100779.28;4920879;29;20154;-65
2021/12/19 12:26:57;;;;;;;4.72;3.10;;;;;;;18.99;35.24;100787.09;4917696;29;20048;-64
2021/12/19 12:29:24;;;;;;;4.65;3.22;;;;;;;19.00;34.95;100749.13;4919709;29;20523;-70
2021/12/19 12:31:53;;;;;;;9.32;5.57;;;;;;;19.47;34.76;100756.94;4921440;29;21407;-68
2021/12/19 12:34:21;;;;;;;5.40;3.35;;;;;;;19.79;34.42;100752.72;4930596;29;20186;-70
2021/12/19 12:36:48;;;;;;;8.38;3.22;;;;;;;19.17;34.85;100751.13;4926682;29;20191;-68
2021/12/19 12:39:21;;;;;;;3.40;3.10;;;;;;;18.75;35.51;100736.63;4923065;29;20138;-65
2021/12/19 12:42:00;;;;;;;7.53;4.72;;;;;;;19.22;35.00;100733.97;4920636;29;20061;-64
2021/12/19 12:44:27;;;;;;;8.93;4.00;;;;;;;19.25;35.14;100733.31;4939307;29;20048;-64
2021/12/19 12:46:54;;;;;;;5.13;2.95;;;;;;;18.94;35.37;100728.66;4926741;29;20591;-60
2021/12/19 12:49:29;;;;;;;3.28;2.85;;;;;;;19.45;35.02;100733.78;4928307;29;20056;-59
2021/12/19 12:51:58;;;;;;;3.47;3.17;;;;;;;19.63;34.59;100705.09;4942603;29;20147;-65
2021/12/19 12:54:33;;;;;;;7.13;4.75;;;;;;;19.71;34.20;100711.91;4924949;29;20048;-62